Time;durP1;ratioP1;P1;durP2;ratioP2;P2;SDS_P1;SDS_P2;PMS_P1;PMS_P2;Temp;Humidity;BMP_temperature;BMP_pressure;BME280_temperature;BME280_humidity;BME280_pressure;Samples;Min_cycle;Max_cycle;Signal;HPM_P1;HPM_P2
2022/07/08 00:01:40;;;;;;;9.70;1.77;;;20.30;54.60;;;17.94;58.85;101780.91;12235541;19;20010;-80
2022/07/08 00:05:42;;;;;;;6.25;1.42;;;20.10;54.30;;;17.93;59.05;101784.50;12234494;19;20015;-78
2022/07/08 00:09:44;;;;;;;7.30;1.23;;;20.00;54.50;;;18.00;59.00;101806.06;12236753;19;20018;-80
2022/07/08 00:13:45;;;;;;;9.43;1.65;;;19.90;54.30;;;17.85;58.90;101776.25;12234196;19;20066;-80
2022/07/08 00:17:48;;;;;;;6.47;1.92;;;19.90;54.50;;;17.67;59.16;101763.31;12241881;19;20011;-80
2022/07/08 00:21:50;;;;;;;4.85;1.40;;;19.90;54.40;;;17.74;59.02;101776.09;12244551;19;20345;-79
2022/07/08 00:25:52;;;;;;;6.90;1.30;;;19.90;54.40;;;17.79;59.05;101787.22;12241898;19;20014;-79
2022/07/08 00:29:54;;;;;;;3.90;1.42;;;19.80;54.50;;;17.75;59.05;101783.09;12249336;19;20028;-79
2022/07/08 00:33:56;;;;;;;7.47;1.60;;;19.90;54.60;;;17.74;59.12;101781.38;12247896;19;20058;-79
2022/07/08 00:37:57;;;;;;;4.55;1.55;;;19.90;54.70;;;17.68;59.19;101778.19;12248418;19;20033;-79
2022/07/08 00:42:00;;;;;;;5.72;1.42;;;19.70;54.60;;;17.79;58.96;101797.78;12245482;19;20373;-79
2022/07/08 00:46:02;;;;;;;3.97;1.45;;;19.70;54.60;;;17.60;58.97;101783.16;12245512;19;20022;-79
2022/07/08 00:50:05;;;;;;;6.10;2.45;;;19.70;54.60;;;17.64;59.05;101805.78;12240096;19;20052;-79
2022/07/08 00:54:08;;;;;;;5.38;1.65;;;19.70;54.60;;;17.61;59.08;101803.38;12241640;19;20022;-79
2022/07/08 00:58:11;;;;;;;4.80;1.48;;;19.60;54.50;;;17.47;59.10;101793.72;12246167;19;20086;-79
2022/07/08 01:02:12;;;;;;;6.57;1.38;;;19.70;54.60;;;17.66;59.05;101824.16;12242084;19;20341;-79
2022/07/08 01:06:14;;;;;;;6.97;1.40;;;19.60;54.50;;;17.57;59.17;101820.34;12244159;19;20018;-79
2022/07/08 01:10:16;;;;;;;6.32;1.80;;;19.70;54.60;;;17.19;59.17;101767.47;12242355;19;20414;-79
2022/07/08 01:14:18;;;;;;;5.03;1.52;;;19.70;54.60;;;17.21;59.06;101778.78;12246742;19;20031;-79
2022/07/08 01:18:26;;;;;;;7.57;2.30;;;19.50;54.70;;;17.25;59.08;101775.84;12236709;19;20373;-79
2022/07/08 01:22:28;;;;;;;6.68;1.65;;;19.50;54.80;;;17.46;59.27;101828.16;12241134;19;20018;-79
2022/07/08 01:26:30;;;;;;;7.55;1.52;;;19.60;54.70;;;17.55;59.38;101837.25;12240499;19;20430;-80
2022/07/08 01:30:31;;;;;;;7.45;1.65;;;19.50;54.80;;;17.14;59.28;101767.75;12236614;19;20499;-79
2022/07/08 01:34:34;;;;;;;5.97;1.48;;;19.80;55.00;;;17.45;59.11;101821.19;12237044;19;20387;-80
2022/07/08 01:38:36;;;;;;;4.15;1.55;;;19.50;54.80;;;17.30;59.30;101795.78;12246198;19;20021;-79
2022/07/08 01:42:38;;;;;;;8.75;2.00;;;19.40;54.80;;;17.37;59.39;101816.41;12240356;19;20015;-79
2022/07/08 01:46:40;;;;;;;14.95;2.33;;;19.60;55.00;;;17.35;59.45;101820.09;12242043;19;20037;-79
2022/07/08 01:50:42;;;;;;;5.40;1.50;;;19.40;55.00;;;17.45;59.57;101840.53;12240514;19;20078;-79
2022/07/08 01:54:44;;;;;;;5.28;1.75;;;19.40;55.00;;;17.36;59.45;101827.06;12242583;19;20021;-79
2022/07/08 01:58:46;;;;;;;4.95;1.45;;;19.40;55.10;;;17.42;59.32;101832.81;12242535;19;20022;-79
2022/07/08 02:02:47;;;;;;;4.95;1.85;;;19.40;55.10;;;17.34;59.49;101824.53;12241301;19;20495;-79
2022/07/08 02:06:49;;;;;;;8.10;2.38;;;19.40;55.10;;;17.28;59.42;101814.38;12240033;19;20383;-79
2022/07/08 02:15:11;;;;;;;7.80;2.20;;;19.40;55.30;;;17.42;59.68;101842.53;12240124;19;20100;-79
2022/07/08 02:19:12;;;;;;;5.50;1.88;;;19.40;55.30;;;17.16;59.61;101794.06;12241259;19;20067;-80
2022/07/08 02:23:14;;;;;;;8.88;1.88;;;19.30;55.40;;;17.36;59.57;101832.34;12244803;19;20011;-79
2022/07/08 02:27:17;;;;;;;5.55;1.50;;;19.40;55.40;;;17.25;59.79;101814.56;12236064;19;20035;-79
2022/07/08 02:31:18;;;;;;;7.05;1.45;;;19.70;55.60;;;17.57;59.46;101870.53;12241139;19;20014;-79
2022/07/08 02:35:20;;;;;;;6.20;1.92;;;19.40;55.50;;;17.45;59.57;101852.88;12239625;19;20381;-79
2022/07/08 02:39:22;;;;;;;6.68;1.50;;;19.50;55.50;;;17.56;59.72;101871.50;12242324;19;20047;-80
2022/07/08 02:43:24;;;;;;;6.03;1.77;;;19.70;55.70;;;17.43;59.70;101852.97;12238968;19;20018;-80
2022/07/08 02:47:26;;;;;;;5.65;2.10;;;19.50;55.60;;;17.40;59.79;101841.78;12238844;19;20014;-79
2022/07/08 02:51:28;;;;;;;11.50;2.55;;;19.80;55.70;;;17.60;59.80;101877.41;12235592;19;20006;-80
2022/07/08 02:55:29;;;;;;;7.50;2.28;;;19.60;55.60;;;17.57;59.82;101877.63;12236152;19;20371;-79
2022/07/08 02:59:31;;;;;;;5.13;1.73;;;19.80;55.60;;;17.46;59.71;101870.41;12236873;19;20021;-79
2022/07/08 03:03:33;;;;;;;4.25;1.73;;;19.60;55.70;;;17.52;60.08;101885.84;12237701;19;20380;-79
2022/07/08 03:07:34;;;;;;;5.25;1.40;;;19.50;55.70;;;17.44;60.10;101864.38;12230304;19;20025;-80
2022/07/08 03:11:36;;;;;;;5.13;1.55;;;19.50;55.80;;;17.68;60.02;101907.66;12238536;19;20014;-79
2022/07/08 03:15:38;;;;;;;6.70;1.50;;;19.60;55.90;;;17.32;60.00;101852.84;12235781;19;20011;-77
2022/07/08 03:19:39;;;;;;;6.53;1.75;;;19.60;55.80;;;17.61;60.03;101895.81;12238050;19;20018;-77
2022/07/08 03:23:41;;;;;;;5.88;1.88;;;19.60;55.80;;;17.63;59.85;101909.78;12239500;19;20015;-77
2022/07/08 03:27:43;;;;;;;4.47;1.75;;;19.60;55.90;;;17.59;60.04;101907.44;12236275;19;20013;-77
2022/07/08 03:31:45;;;;;;;7.53;1.60;;;19.60;55.80;;;17.61;59.91;101922.22;12233491;19;20014;-77
2022/07/08 03:35:46;;;;;;;5.75;2.03;;;19.60;55.90;;;17.64;59.98;101915.91;12235538;19;20082;-77
2022/07/08 03:39:50;;;;;;;6.07;1.70;;;20.00;56.00;;;17.74;60.07;101943.41;12238510;19;20375;-77
2022/07/08 03:43:53;;;;;;;7.35;2.28;;;19.70;56.00;;;17.69;60.08;101945.50;12239748;19;20029;-77
2022/07/08 03:47:56;;;;;;;5.00;1.65;;;19.80;56.00;;;17.63;60.12;101937.97;12237121;19;20018;-77
2022/07/08 03:51:58;;;;;;;6.43;1.50;;;19.80;56.10;;;17.78;60.08;101967.84;12237811;19;20026;-77
2022/07/08 03:56:00;;;;;;;2.80;1.08;;;19.70;56.00;;;17.80;60.14;101963.34;12253093;19;20021;-77
2022/07/08 04:00:02;;;;;;;6.95;1.80;;;20.00;56.20;;;17.86;60.03;101979.63;12250486;19;20089;-77
2022/07/08 04:04:05;;;;;;;11.73;2.40;;;19.70;56.00;;;17.78;60.13;101965.19;12250382;19;20435;-77
2022/07/08 04:08:07;;;;;;;5.10;1.52;;;19.70;55.90;;;17.87;60.29;101996.31;12241125;19;20773;-77
2022/07/08 04:12:10;;;;;;;5.43;1.58;;;19.80;55.90;;;17.85;60.21;101979.72;12245493;19;20018;-77
2022/07/08 04:16:13;;;;;;;4.95;1.55;;;19.80;55.90;;;17.78;60.07;101986.31;12253441;19;20021;-77
2022/07/08 04:20:14;;;;;;;5.38;1.75;;;19.80;56.00;;;17.73;60.31;101973.41;12246565;19;20014;-77
2022/07/08 04:24:16;;;;;;;5.78;1.75;;;19.80;55.90;;;17.79;60.07;101982.75;12252277;19;20035;-77
2022/07/08 04:28:18;;;;;;;4.78;2.10;;;19.80;56.00;;;17.88;60.07;102003.31;12246597;19;20035;-77
2022/07/08 04:32:20;;;;;;;5.15;1.58;;;19.80;56.00;;;17.96;60.23;102013.34;12245905;19;20033;-77
2022/07/08 04:36:22;;;;;;;8.25;1.88;;;19.80;56.00;;;17.94;60.27;102007.34;12246513;19;20048;-77
2022/07/08 04:40:24;;;;;;;7.05;1.63;;;19.90;56.00;;;18.00;60.29;102012.22;12240701;19;20401;-77
2022/07/08 04:44:25;;;;;;;4.07;1.55;;;19.90;56.00;;;17.95;60.12;101991.38;12244198;19;20026;-77
2022/07/08 04:48:27;;;;;;;5.15;1.70;;;19.90;56.00;;;17.90;60.20;101985.53;12241443;19;20006;-77
2022/07/08 04:52:28;;;;;;;7.90;1.50;;;20.00;55.90;;;18.07;60.09;102018.81;12237312;19;20058;-77
2022/07/08 04:56:30;;;;;;;5.45;1.58;;;20.00;55.90;;;18.04;60.26;102019.84;12246489;19;20480;-77
2022/07/08 05:00:33;;;;;;;4.57;1.63;;;20.10;55.90;;;18.14;60.07;102028.84;12241724;19;20021;-77
2022/07/08 05:04:35;;;;;;;5.45;1.63;;;20.00;55.90;;;17.93;60.28;102001.22;12245290;19;20440;-77
2022/07/08 05:08:37;;;;;;;2.72;1.33;;;20.00;55.90;;;18.20;60.20;102050.53;12240967;19;20018;-77
2022/07/08 05:12:38;;;;;;;3.70;1.55;;;20.10;56.00;;;18.15;60.06;102029.72;12241782;19;20082;-77
2022/07/08 05:16:42;;;;;;;6.03;1.70;;;20.10;56.00;;;18.21;60.30;102031.09;12240186;19;20022;-77
2022/07/08 05:20:43;;;;;;;8.48;1.50;;;20.10;55.90;;;18.29;60.26;102056.09;12241105;19;20529;-78
2022/07/08 05:24:45;;;;;;;6.15;1.45;;;20.10;56.00;;;18.21;60.13;102031.09;12241470;19;20021;-77
2022/07/08 05:28:47;;;;;;;5.70;1.83;;;20.20;55.80;;;17.95;60.22;101994.00;12240042;19;20026;-77
2022/07/08 05:32:48;;;;;;;5.95;1.67;;;20.20;55.70;;;18.13;60.09;102029.81;12238012;19;20025;-77
2022/07/08 05:36:50;;;;;;;3.83;1.20;;;20.50;55.80;;;18.35;60.09;102054.81;12241504;19;20486;-77
2022/07/08 05:40:53;;;;;;;5.00;1.35;;;20.30;55.70;;;18.34;60.07;102053.16;12238741;19;20658;-77
2022/07/08 05:44:54;;;;;;;8.00;1.88;;;20.30;55.70;;;18.43;60.16;102057.81;12238416;19;20042;-77
2022/07/08 05:48:56;;;;;;;4.55;1.15;;;20.30;55.70;;;18.43;59.92;102063.09;12235103;19;20061;-79
2022/07/08 05:52:58;;;;;;;5.03;1.80;;;20.30;55.80;;;18.53;59.92;102072.13;12234229;19;20035;-77
2022/07/08 05:57:00;;;;;;;4.93;1.63;;;20.40;55.50;;;18.57;60.09;102080.69;12242993;19;20016;-77
2022/07/08 06:01:02;;;;;;;5.22;1.13;;;20.50;55.20;;;18.45;59.75;102074.44;12236348;19;20006;-77
2022/07/08 06:05:04;;;;;;;6.72;1.60;;;20.50;55.20;;;18.55;59.79;102098.44;12242058;19;20043;-77
2022/07/08 06:09:06;;;;;;;4.80;1.52;;;20.50;55.10;;;18.27;59.70;102054.50;12237293;19;20111;-77
2022/07/08 06:13:07;;;;;;;6.30;1.40;;;20.60;55.10;;;18.39;59.70;102087.19;12239117;19;20018;-77
2022/07/08 06:17:09;;;;;;;5.47;1.45;;;20.30;55.20;;;18.45;59.81;102103.53;12237064;19;20047;-77
2022/07/08 06:21:11;;;;;;;3.70;1.50;;;20.40;55.10;;;18.40;59.61;102087.09;12235038;19;20019;-77
2022/07/08 06:25:13;;;;;;;3.13;1.23;;;20.40;55.10;;;18.57;59.74;102123.00;12234323;19;20018;-78
2022/07/08 06:29:14;;;;;;;5.30;1.52;;;20.40;55.00;;;18.48;59.70;102124.47;12233977;19;20042;-78
2022/07/08 06:33:16;;;;;;;4.22;1.25;;;20.80;55.00;;;18.48;59.47;102127.13;12240264;19;20014;-78
2022/07/08 06:37:18;;;;;;;6.00;1.50;;;20.40;54.80;;;18.49;59.55;102143.84;12237302;19;20425;-78
2022/07/08 06:41:20;;;;;;;6.82;1.40;;;20.40;54.80;;;18.41;59.72;102143.50;12237367;19;20026;-77
2022/07/08 06:45:21;;;;;;;3.22;1.50;;;20.60;54.70;;;18.27;59.63;102131.19;12237761;19;20045;-78
2022/07/08 06:49:23;;;;;;;4.35;1.33;;;20.70;54.80;;;18.31;59.66;102152.03;12233876;19;20023;-77
2022/07/08 06:53:25;;;;;;;2.90;1.17;;;20.30;54.60;;;18.24;59.61;102149.91;12238223;19;20018;-77
2022/07/08 06:57:27;;;;;;;4.85;1.40;;;20.30;54.60;;;18.18;59.73;102147.66;12233113;19;20018;-78
2022/07/08 07:01:28;;;;;;;4.13;1.05;;;20.50;54.60;;;18.18;59.37;102171.47;12236307;19;20022;-78
2022/07/08 07:05:31;;;;;;;3.03;1.30;;;20.20;54.50;;;18.21;59.69;102163.31;12236716;19;20047;-77
2022/07/08 07:09:32;;;;;;;2.67;1.35;;;20.20;54.60;;;18.10;59.58;102159.56;12234610;19;20014;-78
2022/07/08 07:13:34;;;;;;;4.15;1.10;;;20.10;54.40;;;18.19;59.71;102157.28;12236564;19;20010;-78
2022/07/08 07:17:40;;;;;;;2.97;1.20;;;20.10;54.60;;;18.04;59.40;102138.81;12237697;19;20018;-78
2022/07/08 07:21:42;;;;;;;3.22;1.30;;;20.10;54.60;;;18.17;59.35;102164.44;12233305;19;20018;-78
2022/07/08 07:25:44;;;;;;;3.75;1.30;;;20.10;54.70;;;18.21;59.50;102177.38;12232632;19;20018;-77
2022/07/08 07:29:45;;;;;;;7.47;1.63;;;20.50;54.80;;;18.17;59.55;102172.38;12230445;19;20459;-78
2022/07/08 07:33:47;;;;;;;3.75;1.50;;;20.20;54.50;;;18.11;59.47;102166.53;12235294;19;20410;-78
2022/07/08 07:37:49;;;;;;;4.72;1.63;;;20.20;54.50;;;17.99;59.56;102150.63;12232021;19;20014;-78
2022/07/08 07:41:50;;;;;;;6.60;1.75;;;20.10;54.40;;;18.11;59.47;102187.69;12233396;19;20014;-78
2022/07/08 07:45:52;;;;;;;4.90;1.67;;;20.10;54.30;;;17.92;59.56;102172.16;12234108;19;20018;-78
2022/07/08 07:49:54;;;;;;;3.03;1.58;;;20.00;54.20;;;17.94;59.34;102181.78;12232225;19;20089;-78
2022/07/08 07:53:56;;;;;;;7.15;1.65;;;20.30;54.50;;;17.97;59.38;102192.16;12235846;19;20364;-78
2022/07/08 07:57:58;;;;;;;8.48;1.90;;;19.90;54.20;;;17.81;59.53;102187.00;12231754;19;20018;-78
2022/07/08 08:01:59;;;;;;;5.38;1.65;;;20.20;54.40;;;17.81;59.43;102182.53;12225449;19;20010;-78
2022/07/08 08:06:03;;;;;;;6.78;1.63;;;20.10;54.30;;;17.85;59.50;102188.50;12227755;19;20014;-78
2022/07/08 08:10:07;;;;;;;5.53;1.63;;;19.90;54.40;;;17.87;59.42;102195.38;12234059;19;20474;-78
2022/07/08 08:14:09;;;;;;;5.10;2.28;;;19.90;54.30;;;17.74;59.38;102175.06;12233308;19;20026;-78
2022/07/08 08:18:10;;;;;;;7.50;1.95;;;19.90;54.40;;;17.65;59.52;102161.47;12233940;19;20025;-79
2022/07/08 08:22:12;;;;;;;6.80;2.05;;;19.90;54.40;;;17.75;59.49;102182.06;12229670;19;20362;-78
2022/07/08 08:26:14;;;;;;;7.10;1.33;;;19.90;54.20;;;17.81;59.47;102190.47;12232520;19;20081;-79
2022/07/08 08:30:17;;;;;;;4.32;1.52;;;19.90;54.30;;;17.84;59.27;102205.28;12233462;19;20386;-78
2022/07/08 08:34:19;;;;;;;7.53;1.70;;;19.90;54.20;;;17.84;59.43;102207.94;12230990;19;20002;-78
2022/07/08 08:38:20;;;;;;;4.43;1.42;;;20.10;54.50;;;17.95;59.29;102223.13;12233947;19;20022;-78
2022/07/08 08:42:24;;;;;;;8.35;2.00;;;19.90;54.20;;;17.98;59.22;102229.06;12237432;19;20039;-79
2022/07/08 08:46:25;;;;;;;3.08;1.33;;;19.90;54.20;;;18.01;59.20;102209.50;12243203;19;20034;-78
2022/07/08 08:54:53;;;;;;;5.53;1.23;;;19.90;54.30;;;18.13;59.05;102219.34;12242426;19;20010;-78
2022/07/08 08:58:56;;;;;;;4.05;1.30;;;20.00;53.90;;;18.02;59.05;102193.56;12241909;19;20016;-78
2022/07/08 09:03:01;;;;;;;;;;;20.00;53.80;;;18.26;58.66;102232.63;12238650;19;20015;-78
2022/07/08 09:07:03;;;;;;;5.18;1.13;;;20.10;53.80;;;18.25;58.85;102244.13;12238598;19;19926;-78
2022/07/08 09:11:06;;;;;;;3.00;1.20;;;20.10;53.70;;;18.32;58.69;102240.16;12240414;19;20023;-78
2022/07/08 09:15:08;;;;;;;3.30;1.55;;;20.10;53.80;;;18.32;58.83;102219.84;12244488;19;20035;-78
2022/07/08 09:19:13;;;;;;;2.53;1.20;;;20.20;53.70;;;18.46;58.59;102241.94;12238798;19;20387;-79
2022/07/08 09:23:29;;;;;;;5.70;1.35;;;20.30;53.20;;;18.52;58.63;102225.66;12245293;19;20021;-78
2022/07/08 09:27:30;;;;;;;5.47;1.30;;;20.40;53.20;;;18.48;58.29;102210.94;12234748;19;20019;-79
2022/07/08 09:31:34;;;;;;;3.60;0.95;;;20.60;53.50;;;18.64;58.59;102230.16;12241013;19;20295;-78
2022/07/08 09:35:39;;;;;;;2.08;1.45;;;20.70;53.30;;;18.70;58.14;102223.59;12238182;19;20014;-78
2022/07/08 09:39:43;;;;;;;4.80;1.35;;;20.50;53.10;;;18.75;58.08;102224.19;12241860;19;20808;-79
2022/07/08 09:43:49;;;;;;;3.22;0.90;;;20.60;52.90;;;18.67;58.10;102208.78;12238366;19;20015;-79
2022/07/08 09:47:52;;;;;;;2.97;1.17;;;20.70;52.80;;;18.39;58.15;102163.91;12237057;19;20026;-78
2022/07/08 09:51:54;;;;;;;4.68;1.10;;;20.70;52.80;;;18.68;57.85;102220.22;12232716;19;20021;-78
2022/07/08 09:55:56;;;;;;;4.90;1.25;;;21.00;52.70;;;18.88;58.14;102248.91;12238104;19;20015;-78
2022/07/08 09:59:58;;;;;;;2.47;1.10;;;20.70;52.50;;;18.89;57.78;102257.69;12237973;19;20019;-79
2022/07/08 10:04:00;;;;;;;5.60;1.35;;;20.70;52.50;;;18.83;57.70;102243.06;12235963;19;20026;-79
2022/07/08 10:08:03;;;;;;;5.13;1.25;;;20.80;52.50;;;18.87;57.69;102249.00;12231351;19;20045;-78
2022/07/08 10:12:10;;;;;;;3.47;1.00;;;20.80;52.40;;;18.86;57.58;102255.25;12236376;19;20011;-78
2022/07/08 10:16:12;;;;;;;3.25;1.17;;;20.80;52.30;;;18.82;57.77;102245.78;12240815;19;20026;-78
2022/07/08 10:20:16;;;;;;;2.45;1.15;;;20.80;52.50;;;18.56;57.46;102198.91;12236279;19;20018;-78
2022/07/08 10:24:25;;;;;;;11.60;2.78;;;20.90;52.30;;;19.01;57.73;102264.84;12240346;19;20015;-78
2022/07/08 10:28:35;;;;;;;4.82;1.02;;;20.90;52.10;;;18.86;57.37;102250.81;12233725;19;20053;-78
2022/07/08 10:32:37;;;;;;;1.65;0.93;;;20.90;52.10;;;18.96;57.28;102257.19;12238242;19;20089;-78
2022/07/08 10:36:50;;;;;;;2.92;1.30;;;20.90;52.10;;;19.09;57.16;102261.66;12237588;19;20105;-78
2022/07/08 10:40:53;;;;;;;3.55;1.00;;;21.00;51.90;;;18.88;57.28;102217.13;12233904;19;20078;-78
2022/07/08 10:44:55;;;;;;;2.58;1.10;;;21.00;51.90;;;18.96;57.31;102211.34;12235271;19;20030;-78
2022/07/08 10:49:02;;;;;;;2.20;0.90;;;21.00;52.00;;;19.17;57.41;102244.31;12234365;19;20344;-78
2022/07/08 10:53:06;;;;;;;4.43;1.27;;;21.00;51.90;;;18.90;56.91;102179.97;12233479;19;20369;-78
2022/07/08 10:57:14;;;;;;;2.00;1.15;;;21.00;51.80;;;19.41;57.33;102225.88;12234666;19;20007;-79
2022/07/08 11:01:26;;;;;;;4.72;1.70;;;21.10;52.20;;;19.80;56.87;102237.38;12236305;19;20057;-78
2022/07/08 11:05:42;;;;;;;5.00;1.40;;;21.30;52.30;;;20.10;56.47;102250.25;12235974;19;20736;-78
2022/07/08 11:09:45;;;;;;;4.20;1.60;;;21.60;51.90;;;20.25;56.46;102248.34;12237797;19;20417;-78
2022/07/08 11:13:49;;;;;;;2.42;1.00;;;21.80;51.70;;;20.26;56.37;102239.41;12236409;19;20013;-79
2022/07/08 11:17:53;;;;;;;2.28;1.25;;;21.90;51.40;;;20.33;56.26;102223.88;12237400;19;20019;-78
2022/07/08 11:22:08;;;;;;;4.60;1.27;;;22.10;51.30;;;20.55;56.23;102223.22;12231482;19;20025;-78
2022/07/08 11:26:17;;;;;;;5.20;1.30;;;22.30;51.30;;;20.66;55.60;102228.56;12236136;19;20018;-78
2022/07/08 11:30:20;;;;;;;4.90;1.35;;;22.50;50.60;;;20.86;55.64;102228.88;12233892;19;20078;-78
2022/07/08 11:34:23;;;;;;;3.35;1.27;;;22.50;50.50;;;21.11;55.21;102243.81;12235334;19;20019;-78
2022/07/08 11:38:38;;;;;;;1.60;0.88;;;22.70;50.00;;;21.28;54.83;102242.53;12236979;19;20019;-77
2022/07/08 11:42:41;;;;;;;4.05;0.95;;;22.90;49.70;;;21.46;55.14;102227.84;12233154;19;20035;-78
2022/07/08 11:46:46;;;;;;;3.58;1.27;;;23.00;49.70;;;21.68;54.34;102237.66;12227928;19;20561;-78
2022/07/08 11:50:50;;;;;;;8.40;1.98;;;23.50;49.30;;;21.78;54.39;102230.66;12233834;19;20508;-78
2022/07/08 11:54:52;;;;;;;7.15;1.10;;;23.40;48.80;;;21.83;54.44;102217.00;12230660;19;20014;-80
2022/07/08 11:58:54;;;;;;;3.28;0.80;;;23.70;48.70;;;22.07;53.88;102214.22;12221096;19;20036;-79
2022/07/08 12:02:55;;;;;;;2.33;0.90;;;23.70;48.90;;;22.35;54.00;102235.97;12220327;19;20022;-79
2022/07/08 12:07:05;;;;;;;3.08;1.30;;;23.80;48.80;;;22.51;53.08;102223.91;12218224;19;20035;-79
2022/07/08 12:11:18;;;;;;;5.13;1.30;;;24.00;47.90;;;22.60;53.15;102221.47;12222816;19;20010;-79
2022/07/08 12:15:20;;;;;;;2.92;1.10;;;24.20;47.80;;;22.62;53.24;102200.91;12232048;19;20014;-80
2022/07/08 12:19:28;;;;;;;2.60;1.02;;;24.30;47.10;;;22.62;52.50;102187.56;12241357;19;20019;-79
2022/07/08 12:23:43;;;;;;;2.45;1.05;;;24.40;47.10;;;22.77;52.53;102228.09;12244629;19;20053;-79
2022/07/08 12:28:01;;;;;;;;;;;24.50;46.60;;;22.76;53.54;102203.25;12239307;19;20003;-79
2022/07/08 12:32:08;;;;;;;1.88;1.15;;;24.50;48.40;;;22.64;52.85;102212.28;12231519;19;19919;-79
2022/07/08 12:36:25;;;;;;;6.43;1.15;;;24.50;46.50;;;22.51;52.33;102202.63;12244653;19;20337;-79
2022/07/08 12:40:40;;;;;;;3.72;0.80;;;24.40;46.40;;;22.43;52.45;102185.59;12236345;19;20018;-79
2022/07/08 12:44:48;;;;;;;2.30;0.80;;;24.30;46.10;;;22.36;52.29;102184.41;12240622;19;20427;-79
2022/07/08 12:48:52;;;;;;;3.92;0.68;;;24.30;46.10;;;22.47;52.10;102206.53;12238035;19;20056;-79
2022/07/08 12:52:55;;;;;;;2.65;0.98;;;24.40;46.50;;;22.36;52.13;102177.28;12216720;19;20082;-79
2022/07/08 12:56:58;;;;;;;2.80;1.20;;;24.30;46.50;;;22.43;51.93;102191.75;12223003;19;20022;-79
2022/07/08 13:01:00;;;;;;;0.50;0.50;;;24.40;46.30;;;22.28;52.01;102163.75;12232297;19;20010;-79
2022/07/08 13:05:02;;;;;;;2.65;1.10;;;24.30;46.10;;;22.39;52.25;102174.38;12232947;19;20014;-79
2022/07/08 13:09:05;;;;;;;5.75;1.02;;;24.30;46.30;;;22.44;52.14;102179.28;12241648;19;20027;-82
2022/07/08 13:13:07;;;;;;;3.83;1.08;;;24.30;46.00;;;22.44;51.82;102189.94;12230800;19;20013;-79
2022/07/08 13:17:09;;;;;;;1.92;0.80;;;24.30;46.10;;;22.30;51.89;102153.81;12232789;19;20035;-81
2022/07/08 13:21:10;;;;;;;2.20;0.73;;;24.30;46.00;;;22.52;51.64;102198.13;12232066;19;20011;-78
2022/07/08 13:25:12;;;;;;;2.70;0.73;;;24.30;45.90;;;22.41;51.76;102168.91;12240295;19;20486;-78
2022/07/08 13:29:13;;;;;;;1.25;0.73;;;24.30;46.00;;;22.41;51.42;102172.41;12241896;19;20014;-78
2022/07/08 13:33:15;;;;;;;1.02;0.73;;;24.50;46.10;;;22.46;51.38;102177.34;12239368;19;20003;-78
2022/07/08 13:37:17;;;;;;;1.55;0.68;;;24.30;45.70;;;22.37;51.48;102173.63;12240222;19;20021;-79
2022/07/08 13:41:19;;;;;;;2.85;1.35;;;24.30;45.80;;;22.39;51.52;102179.69;12231454;19;20375;-78
2022/07/08 13:45:20;;;;;;;2.47;0.93;;;24.30;45.90;;;22.37;51.29;102184.28;12236633;19;20357;-78
2022/07/08 13:49:22;;;;;;;1.13;0.63;;;24.30;45.80;;;22.33;51.39;102182.81;12233511;19;20019;-80
2022/07/08 13:53:24;;;;;;;3.05;0.80;;;24.20;45.60;;;22.20;51.30;102168.88;12238151;19;20018;-80
2022/07/08 13:57:26;;;;;;;4.20;0.98;;;24.20;45.70;;;22.11;51.23;102162.41;12238235;19;20007;-80
2022/07/08 14:01:28;;;;;;;3.83;1.00;;;24.10;45.90;;;22.17;51.18;102177.91;12231896;19;20010;-80
2022/07/08 14:05:29;;;;;;;2.60;1.05;;;24.10;45.70;;;22.13;51.38;102172.94;12232799;19;20025;-80
2022/07/08 14:09:31;;;;;;;5.30;0.98;;;24.10;45.80;;;22.18;51.10;102192.06;12232569;19;20093;-80
2022/07/08 14:13:33;;;;;;;3.83;1.20;;;24.00;45.40;;;22.02;51.09;102174.66;12238898;19;20472;-80
2022/07/08 14:17:37;;;;;;;1.35;0.77;;;24.00;45.70;;;21.95;51.36;102157.50;12230021;19;20010;-79
2022/07/08 14:21:39;;;;;;;3.55;1.13;;;23.90;45.80;;;21.93;51.02;102146.16;12216104;19;20097;-80
2022/07/08 14:25:41;;;;;;;2.60;1.10;;;23.90;46.00;;;22.02;50.96;102163.19;12227641;19;20106;-80
2022/07/08 14:29:43;;;;;;;4.20;1.00;;;23.90;45.80;;;21.80;50.92;102127.69;12235511;19;20019;-79
2022/07/08 14:33:45;;;;;;;3.30;1.20;;;23.90;45.70;;;21.79;50.97;102131.31;12236264;19;20014;-80
2022/07/08 14:37:46;;;;;;;4.93;1.17;;;23.90;45.80;;;21.91;51.13;102160.53;12223507;19;20018;-80
2022/07/08 14:41:48;;;;;;;6.43;1.60;;;23.80;45.90;;;22.00;51.24;102165.94;12227818;19;20501;-80
2022/07/08 14:45:50;;;;;;;1.73;0.98;;;23.90;46.00;;;22.05;51.01;102173.56;12221207;19;20010;-79
2022/07/08 14:49:51;;;;;;;3.00;0.80;;;23.90;46.10;;;22.06;50.80;102175.25;12233072;19;20028;-80
2022/07/08 14:53:53;;;;;;;2.22;1.27;;;24.00;46.20;;;21.95;51.20;102165.47;12230339;19;20022;-80
2022/07/08 14:57:54;;;;;;;2.90;0.90;;;23.80;46.20;;;21.98;51.06;102159.06;12226746;19;20014;-79
2022/07/08 15:01:56;;;;;;;1.73;0.77;;;23.80;46.30;;;22.05;50.84;102166.44;12202317;19;20342;-80
2022/07/08 15:05:59;;;;;;;1.45;0.95;;;23.80;46.30;;;22.05;51.17;102174.41;12234410;19;20010;-80
2022/07/08 15:10:00;;;;;;;4.88;1.17;;;23.90;46.50;;;22.09;50.86;102180.34;12232652;19;20030;-80
2022/07/08 15:14:02;;;;;;;2.65;0.98;;;23.90;47.00;;;22.12;51.21;102180.09;12232946;19;20019;-80
2022/07/08 15:18:05;;;;;;;1.73;0.82;;;23.90;46.60;;;21.92;51.10;102165.72;12230416;19;20022;-80
2022/07/08 15:22:07;;;;;;;2.83;1.17;;;23.90;46.50;;;21.99;51.25;102196.19;12227660;19;20014;-79
2022/07/08 15:26:09;;;;;;;2.03;0.80;;;23.90;46.70;;;21.92;51.15;102189.66;12230696;19;20017;-80
2022/07/08 15:30:11;;;;;;;5.50;1.45;;;23.80;46.70;;;21.57;51.29;102124.19;12231041;19;20713;-80
2022/07/08 15:34:13;;;;;;;1.23;1.00;;;23.80;46.80;;;21.77;51.13;102159.84;12231343;19;20018;-80
2022/07/08 15:38:15;;;;;;;3.05;1.58;;;24.00;46.90;;;21.64;51.24;102144.00;12234721;19;20018;-80
2022/07/08 15:42:17;;;;;;;3.15;1.70;;;23.70;46.90;;;21.84;51.53;102186.78;12231085;19;20015;-80
2022/07/08 15:46:18;;;;;;;4.65;2.40;;;23.90;46.80;;;21.64;51.21;102161.78;12233454;19;20480;-80
2022/07/08 15:50:20;;;;;;;3.90;1.52;;;23.80;46.90;;;21.80;51.40;102190.66;12238534;19;20014;-80
2022/07/08 15:54:22;;;;;;;1.85;1.23;;;23.60;47.10;;;21.71;51.37;102173.63;12234793;19;20380;-80
2022/07/08 15:58:24;;;;;;;3.00;1.30;;;23.60;47.30;;;21.84;51.74;102200.06;12237793;19;20454;-80
2022/07/08 16:02:26;;;;;;;1.73;1.00;;;23.60;47.60;;;21.76;51.73;102183.88;12240888;19;20027;-79
2022/07/08 16:06:27;;;;;;;1.80;1.10;;;23.70;47.60;;;21.85;51.44;102188.47;12245516;19;20472;-80
2022/07/08 16:10:29;;;;;;;2.97;0.68;;;23.60;47.50;;;21.78;51.52;102184.59;12246213;19;20078;-80
2022/07/08 16:14:30;;;;;;;2.15;0.80;;;23.60;47.50;;;21.74;51.71;102162.75;12246203;19;20023;-80
2022/07/08 16:18:32;;;;;;;1.23;0.63;;;23.60;47.50;;;21.76;51.78;102165.25;12247240;19;20031;-79
2022/07/08 16:22:34;;;;;;;2.47;0.63;;;23.60;47.60;;;21.93;51.47;102177.19;12243630;19;20873;-80
2022/07/08 16:26:36;;;;;;;1.50;0.80;;;23.60;47.70;;;21.97;51.85;102171.53;12243748;19;20112;-80
2022/07/08 16:30:37;;;;;;;1.85;0.90;;;23.70;47.90;;;21.84;51.84;102129.09;12238979;19;20483;-80
2022/07/08 16:34:39;;;;;;;1.13;0.73;;;23.70;48.00;;;22.15;51.83;102168.34;12246290;19;20070;-79
2022/07/08 16:38:41;;;;;;;2.20;0.90;;;23.80;47.80;;;22.07;51.55;102145.03;12243938;19;20564;-79
2022/07/08 16:42:43;;;;;;;2.83;0.98;;;23.90;47.60;;;22.15;51.75;102136.44;12242095;19;20030;-80
2022/07/08 16:46:45;;;;;;;1.13;0.93;;;23.90;47.80;;;22.31;51.48;102150.19;12242602;19;20010;-80